Accueil
METAR-TAF:

METAR-TAF

Aéroports :

Aéroport international d'Exeter

Exeter, Angleterre

latitude: 50-44N, longitude: 003-25W, altitude: 30 m

Observation

Le bulletin a été fait il y a 31 minutes, à 05:50 UTC
Vent 6 kt de sud
Température 11°C
Humidité 94%
Pression 1021 hPa
Visibilité 10 km ou plus
Quelques nuages à une hauteur de 800 ft
Nuages épars à une hauteur de 1400 ft
Nuages fragmentés à une hauteur de 2000 ft

METAR: EGTE 160550Z 18006KT 9999 FEW008 SCT014 BKN020 11/10 Q1021

Heure: 06:21 (06:21 UTC)

Prévision

Le bulletin a été fait il y a 7 heures et 19 minutes, à 23:02 UTC
Prévision valable du 16 à 00 UTC au 16 à 04 UTC
Vent 3 kt de direction variable
Visibilité: 7000 m
Quelques nuages à une hauteur de 800 ft
Temporairement
du 16 à 00 UTC au 16 à 04 UTC
Visibilité: 4000 m
Nuages fragmentés à une hauteur de 800 ft
pluie faible, brume

TAF: EGTE 152302Z 1600/1604 VRB03KT 7000 FEW008 TEMPO 1600/1604 4000 -RA BR BKN008

Observations et prévisions météorologiques de plus de 4000 aéroports (messages METAR et TAF).

Les stations disponibles sont représentées par des disques jaunes et rouges sur la carte.

Passer la souris dessus pour voir le nom de la station.

Cliquer dessus pour voir les observations et prévisions météorologiques.

Pour changer de carte: cliquez sur les boutons verts avec une croix noire pour zoomer, sur le bouton vert avec un tiret pour effectuer un zoom arrière, ou sur les flèches vertes pour les cartes adjacentes.


METAR-TAF: